Time;durP1;ratioP1;P1;durP2;ratioP2;P2;SDS_P1;SDS_P2;PMS_P1;PMS_P2;Temp;Humidity;BMP_temperature;BMP_pressure;BME280_temperature;BME280_humidity;BME280_pressure;Samples;Min_cycle;Max_cycle;Signal;HPM_P1;HPM_P2
2021/05/19 00:01:36;;;;;;;2.72;2.13;;;359.10;2124.80;;;;;;5014971;28;20096;-76
2021/05/19 00:04:03;;;;;;;2.88;2.00;;;359.10;2150.40;;;;;;5016687;28;20429;-74
2021/05/19 00:06:29;;;;;;;6.43;2.42;;;359.10;2150.40;;;;;;5013350;28;20034;-76
2021/05/19 00:08:55;;;;;;;3.97;2.50;;;359.20;2150.40;;;;;;5015331;28;20050;-75
2021/05/19 00:11:21;;;;;;;2.70;2.10;;;359.20;2150.40;;;;;;5015778;28;20068;-76
2021/05/19 00:13:47;;;;;;;4.25;2.10;;;359.30;2150.40;;;;;;5015871;28;20017;-76
2021/05/19 00:16:13;;;;;;;5.68;2.28;;;359.30;2176.00;;;;;;5015553;28;20018;-75
2021/05/19 00:18:39;;;;;;;3.55;2.28;;;359.30;2176.00;;;;;;5015405;28;20018;-76
2021/05/19 00:21:06;;;;;;;4.15;2.20;;;359.20;2176.00;;;;;;5015468;28;20030;-76
2021/05/19 00:23:32;;;;;;;4.60;2.08;;;359.30;2176.00;;;;;;5015281;28;20395;-75
2021/05/19 00:25:58;;;;;;;2.53;2.10;;;359.30;2176.00;;;;;;5014961;28;20038;-76
2021/05/19 00:28:24;;;;;;;2.10;1.90;;;359.30;2176.00;;;;;;5015278;28;20034;-75
2021/05/19 00:30:55;;;;;;;2.08;1.80;;;359.30;2176.00;;;;;;5015929;28;20188;-75
2021/05/19 00:33:20;;;;;;;3.50;2.08;;;359.30;2176.00;;;;;;5014662;28;20030;-76
2021/05/19 00:35:46;;;;;;;2.17;1.88;;;359.30;2176.00;;;;;;5015448;28;20022;-76
2021/05/19 00:38:12;;;;;;;4.35;2.22;;;359.30;2176.00;;;;;;5015328;28;20029;-76
2021/05/19 00:40:38;;;;;;;3.13;1.98;;;359.20;2176.00;;;;;;5014902;28;20037;-76
2021/05/19 00:43:04;;;;;;;3.63;1.63;;;359.20;2176.00;;;;;;5019909;28;20364;-75
2021/05/19 00:45:29;;;;;;;2.25;1.90;;;359.20;2176.00;;;;;;5020088;28;20042;-75
2021/05/19 00:47:55;;;;;;;2.08;1.77;;;359.20;2176.00;;;;;;5014787;28;20022;-76
2021/05/19 00:50:24;;;;;;;4.78;1.90;;;359.30;2176.00;;;;;;5019366;28;20124;-75
2021/05/19 00:52:50;;;;;;;2.75;1.77;;;359.30;2201.60;;;;;;5017122;28;20079;-76
2021/05/19 00:55:16;;;;;;;4.65;2.00;;;359.30;2201.60;;;;;;5015266;28;20030;-76
2021/05/19 00:57:43;;;;;;;2.13;1.80;;;359.30;2201.60;;;;;;5014946;28;20022;-76
2021/05/19 01:00:12;;;;;;;4.20;1.83;;;359.30;2201.60;;;;;;5014104;28;20518;-75
2021/05/19 01:02:38;;;;;;;2.63;1.80;;;359.30;2201.60;;;;;;5001623;28;20392;-76
2021/05/19 01:05:16;;;;;;;2.33;1.88;;;359.30;2201.60;;;;;;5012564;28;20030;-75
2021/05/19 01:10:29;;;;;;;2.28;2.00;;;359.30;2201.60;;;;;;5014569;28;20087;-75
2021/05/19 01:12:55;;;;;;;2.88;1.77;;;359.30;2201.60;;;;;;5014715;28;20478;-75
2021/05/19 01:15:21;;;;;;;3.35;2.10;;;359.30;2201.60;;;;;;5014869;28;20539;-75
2021/05/19 01:17:47;;;;;;;5.60;2.38;;;359.30;2201.60;;;;;;5014375;28;20022;-75
2021/05/19 01:20:14;;;;;;;2.65;2.00;;;359.20;2201.60;;;;;;5013519;28;20067;-76
2021/05/19 01:22:42;;;;;;;4.70;1.83;;;359.20;2201.60;;;;;;5018907;28;20088;-75
2021/05/19 01:25:09;;;;;;;2.70;1.92;;;359.20;2201.60;;;;;;5008918;28;20092;-76
2021/05/19 01:27:34;;;;;;;2.67;1.75;;;359.20;2227.20;;;;;;5014470;28;20040;-75
2021/05/19 01:30:01;;;;;;;3.63;1.85;;;359.20;2227.20;;;;;;5012797;28;20407;-75
2021/05/19 01:32:27;;;;;;;3.53;2.00;;;359.30;2201.60;;;;;;5013675;28;20061;-75
2021/05/19 01:34:53;;;;;;;3.55;2.00;;;359.30;2227.20;;;;;;5013970;28;20032;-75
2021/05/19 01:37:19;;;;;;;4.03;2.10;;;359.30;2227.20;;;;;;5014068;28;20105;-75
2021/05/19 01:39:46;;;;;;;2.17;1.92;;;359.30;2227.20;;;;;;5013940;28;20109;-75
2021/05/19 01:42:12;;;;;;;1.85;1.60;;;359.20;2227.20;;;;;;5017068;28;20032;-75
2021/05/19 01:44:39;;;;;;;2.50;2.10;;;359.20;2227.20;;;;;;5015052;28;20122;-75
2021/05/19 01:50:34;;;;;;;4.57;1.92;;;359.30;2227.20;;;;;;5016146;23;20069;-73
2021/05/19 01:53:03;;;;;;;2.25;1.98;;;359.30;2227.20;;;;;;5010991;28;20026;-73
2021/05/19 01:55:29;;;;;;;2.95;1.75;;;359.30;2227.20;;;;;;5018607;28;20026;-73
2021/05/19 01:57:56;;;;;;;2.80;2.20;;;359.10;2227.20;;;;;;5018638;28;20088;-73
2021/05/19 02:00:24;;;;;;;2.92;2.13;;;359.00;2227.20;;;;;;5028607;28;20491;-74
2021/05/19 02:02:57;;;;;;;2.30;1.80;;;359.10;2227.20;;;;;;5019700;28;20121;-74
2021/05/19 02:05:25;;;;;;;7.80;2.55;;;359.10;2252.80;;;;;;5016823;28;20048;-74
2021/05/19 02:07:51;;;;;;;3.70;2.53;;;359.10;2252.80;;;;;;5007868;28;20086;-74
2021/05/19 02:10:17;;;;;;;3.13;2.33;;;359.20;2252.80;;;;;;4994492;28;20060;-74
2021/05/19 02:12:43;;;;;;;5.47;2.78;;;359.20;2252.80;;;;;;5024630;28;20522;-74
2021/05/19 02:15:09;;;;;;;5.20;2.50;;;359.20;2252.80;;;;;;5014708;28;20116;-74
2021/05/19 02:17:35;;;;;;;2.95;2.40;;;359.10;2252.80;;;;;;5020181;28;20069;-74
2021/05/19 02:20:09;;;;;;;3.63;2.40;;;359.10;2252.80;;;;;;5017687;28;20057;-74
2021/05/19 02:22:34;;;;;;;2.88;2.17;;;359.10;2252.80;;;;;;5006651;28;20488;-74
2021/05/19 02:25:00;;;;;;;5.22;2.33;;;359.10;2252.80;;;;;;5023011;28;20088;-74
2021/05/19 02:27:26;;;;;;;6.22;2.03;;;359.10;2252.80;;;;;;5003443;28;20022;-74
2021/05/19 02:29:55;;;;;;;4.53;2.30;;;359.20;2252.80;;;;;;5023801;28;20377;-75
2021/05/19 02:32:22;;;;;;;5.78;2.20;;;359.20;2252.80;;;;;;5003917;28;20404;-74
2021/05/19 02:34:49;;;;;;;3.95;2.40;;;384.00;2252.80;;;;;;5021926;28;20063;-74
2021/05/19 02:37:15;;;;;;;3.03;2.20;;;359.10;2227.20;;;;;;5011758;28;20086;-75
2021/05/19 02:39:41;;;;;;;6.97;2.40;;;359.10;2252.80;;;;;;5020679;28;20061;-75
2021/05/19 02:42:07;;;;;;;3.45;2.35;;;359.10;2227.20;;;;;;5015934;28;20037;-74
2021/05/19 02:44:33;;;;;;;6.57;2.47;;;359.10;2227.20;;;;;;5004717;28;20111;-74
2021/05/19 02:46:58;;;;;;;3.10;2.25;;;359.20;2227.20;;;;;;5005594;28;20034;-73
2021/05/19 02:49:24;;;;;;;3.42;2.20;;;359.20;2227.20;;;;;;5006030;28;20050;-74
2021/05/19 02:51:50;;;;;;;3.90;2.50;;;359.20;2227.20;;;;;;5021596;28;20556;-73
2021/05/19 02:54:16;;;;;;;5.65;2.35;;;359.30;2227.20;;;;;;5033321;28;20030;-73
2021/05/19 02:56:41;;;;;;;4.65;2.65;;;359.30;2252.80;;;;;;5025786;28;20041;-73
2021/05/19 02:59:07;;;;;;;3.30;2.35;;;359.30;2252.80;;;;;;5036979;28;20022;-74
2021/05/19 03:01:33;;;;;;;3.75;2.50;;;359.30;2227.20;;;;;;5022819;28;20029;-74
2021/05/19 03:03:59;;;;;;;3.85;2.40;;;384.00;2227.20;;;;;;5027646;28;20025;-74
2021/05/19 03:06:25;;;;;;;4.32;2.40;;;384.00;2252.80;;;;;;5022531;28;20040;-74
2021/05/19 03:08:51;;;;;;;5.10;2.70;;;384.00;2252.80;;;;;;5028709;28;20034;-74
2021/05/19 03:11:17;;;;;;;5.25;2.50;;;384.00;2252.80;;;;;;5029676;28;20029;-74
2021/05/19 03:13:43;;;;;;;4.00;2.35;;;384.00;2252.80;;;;;;5042340;28;20025;-74
2021/05/19 03:16:09;;;;;;;4.35;2.35;;;384.00;2252.80;;;;;;5019696;28;20025;-74
2021/05/19 03:18:35;;;;;;;4.85;2.30;;;384.00;2252.80;;;;;;5020337;28;20034;-74
2021/05/19 03:21:02;;;;;;;3.90;2.55;;;384.00;2227.20;;;;;;5034025;28;20352;-74
2021/05/19 03:23:29;;;;;;;5.38;2.60;;;384.00;2227.20;;;;;;5029593;28;20029;-73
2021/05/19 03:25:55;;;;;;;3.67;2.53;;;384.00;2227.20;;;;;;5036502;28;20029;-73
2021/05/19 03:28:21;;;;;;;2.83;2.40;;;384.00;2227.20;;;;;;5021544;28;20060;-74
2021/05/19 03:30:47;;;;;;;4.88;2.63;;;384.00;2227.20;;;;;;5031872;28;20022;-73
2021/05/19 03:33:13;;;;;;;4.70;2.60;;;359.30;2227.20;;;;;;5034055;28;20084;-74
2021/05/19 03:35:39;;;;;;;4.82;2.70;;;359.00;2252.80;;;;;;5033039;28;20021;-74
2021/05/19 03:38:04;;;;;;;6.35;2.60;;;358.80;2304.00;;;;;;5021292;28;20029;-74
2021/05/19 03:40:31;;;;;;;5.70;2.72;;;358.70;2329.60;;;;;;5021328;28;20025;-73
2021/05/19 03:42:57;;;;;;;5.20;2.70;;;358.70;2278.40;;;;;;5024275;28;20030;-73
2021/05/19 03:45:24;;;;;;;3.10;2.40;;;358.70;2304.00;;;;;;5018833;28;20552;-73
2021/05/19 03:47:52;;;;;;;5.40;2.38;;;358.80;2278.40;;;;;;5022572;28;20026;-74
2021/05/19 03:50:24;;;;;;;3.90;2.30;;;358.90;2278.40;;;;;;5018104;28;20054;-73
2021/05/19 03:52:51;;;;;;;6.03;2.70;;;359.00;2278.40;;;;;;5021961;28;20029;-74
2021/05/19 03:55:17;;;;;;;5.97;2.65;;;359.00;2278.40;;;;;;5020434;28;20029;-74
2021/05/19 03:57:42;;;;;;;4.30;2.58;;;359.00;2278.40;;;;;;5021324;28;20025;-74
2021/05/19 04:00:13;;;;;;;3.20;2.17;;;359.10;2278.40;;;;;;5021401;28;20463;-73
2021/05/19 04:02:39;;;;;;;7.05;3.00;;;359.20;2278.40;;;;;;5030260;28;20432;-73
2021/05/19 04:05:06;;;;;;;3.35;2.35;;;359.20;2252.80;;;;;;5023122;28;20033;-73
2021/05/19 04:07:32;;;;;;;3.72;2.35;;;359.30;2278.40;;;;;;5022943;28;20032;-74
2021/05/19 04:09:57;;;;;;;6.03;2.40;;;359.30;2252.80;;;;;;5018976;28;20026;-74
2021/05/19 04:12:23;;;;;;;3.97;2.30;;;384.00;2252.80;;;;;;5021398;28;20140;-74
2021/05/19 04:14:49;;;;;;;5.30;2.35;;;384.00;2278.40;;;;;;5026290;28;20026;-73
2021/05/19 04:17:14;;;;;;;4.80;2.60;;;384.10;2278.40;;;;;;5032105;28;20029;-74
2021/05/19 04:19:41;;;;;;;5.15;2.72;;;384.10;2278.40;;;;;;5023918;28;20029;-73
2021/05/19 04:22:07;;;;;;;5.03;2.50;;;384.20;2278.40;;;;;;5021107;28;20545;-73
2021/05/19 04:24:33;;;;;;;6.38;2.67;;;384.20;2278.40;;;;;;5028303;28;20068;-74
2021/05/19 04:26:59;;;;;;;5.47;2.47;;;384.30;2278.40;;;;;;5033888;28;20030;-73
2021/05/19 04:29:25;;;;;;;4.55;2.40;;;384.30;2278.40;;;;;;5023995;28;20021;-74
2021/05/19 04:31:52;;;;;;;6.80;2.60;;;384.30;2278.40;;;;;;5021371;28;20084;-73
2021/05/19 04:34:18;;;;;;;3.78;2.50;;;384.30;2278.40;;;;;;5032977;28;20033;-74
2021/05/19 04:36:44;;;;;;;7.85;2.80;;;384.30;2278.40;;;;;;5020057;28;20030;-74
2021/05/19 04:39:09;;;;;;;6.07;2.58;;;384.30;2278.40;;;;;;5018018;28;20378;-74
2021/05/19 04:41:35;;;;;;;6.60;2.50;;;384.30;2278.40;;;;;;5022657;28;20077;-73
2021/05/19 04:44:01;;;;;;;5.53;2.80;;;384.40;2252.80;;;;;;5018322;28;20037;-74
2021/05/19 04:46:28;;;;;;;5.88;2.60;;;384.50;2252.80;;;;;;5021717;28;20076;-73
2021/05/19 04:48:58;;;;;;;7.03;3.72;;;384.40;2278.40;;;;;;5033534;28;20380;-73
2021/05/19 04:51:25;;;;;;;7.13;4.15;;;384.30;2252.80;;;;;;5006310;28;20378;-74
2021/05/19 04:53:52;;;;;;;9.50;4.18;;;384.30;2252.80;;;;;;5016807;28;20109;-74
2021/05/19 04:56:18;;;;;;;9.43;2.90;;;384.30;2278.40;;;;;;5028618;28;20062;-74
2021/05/19 04:58:43;;;;;;;7.00;2.90;;;384.40;2278.40;;;;;;5018417;28;20032;-73
2021/05/19 05:01:09;;;;;;;14.23;3.55;;;384.40;2278.40;;;;;;5015245;28;20029;-73
2021/05/19 05:03:36;;;;;;;20.35;4.60;;;384.50;2278.40;;;;;;5018426;28;20030;-74
2021/05/19 05:06:02;;;;;;;11.80;3.67;;;384.50;2278.40;;;;;;5019951;28;20041;-73
2021/05/19 05:08:27;;;;;;;8.98;3.08;;;384.60;2329.60;;;;;;5022699;28;20022;-74
2021/05/19 05:10:53;;;;;;;7.82;2.97;;;384.60;2304.00;;;;;;5021650;28;20117;-74
2021/05/19 05:13:19;;;;;;;7.53;2.95;;;384.60;2304.00;;;;;;5031085;28;20100;-77
2021/05/19 05:15:45;;;;;;;6.47;3.17;;;384.60;2304.00;;;;;;5010444;28;20036;-73
2021/05/19 05:18:10;;;;;;;12.15;3.47;;;384.60;2329.60;;;;;;5007681;28;20042;-75
2021/05/19 05:20:36;;;;;;;8.27;3.45;;;384.60;2329.60;;;;;;5009969;28;20026;-75
2021/05/19 05:23:02;;;;;;;7.78;3.40;;;384.60;2304.00;;;;;;5012391;28;20029;-76
2021/05/19 05:25:28;;;;;;;10.00;3.00;;;384.60;2329.60;;;;;;5013546;28;20515;-71
2021/05/19 05:27:54;;;;;;;8.43;3.30;;;384.60;2304.00;;;;;;5018156;28;20022;-76
2021/05/19 05:30:21;;;;;;;6.97;3.17;;;384.60;2304.00;;;;;;5016654;28;20121;-77
2021/05/19 05:32:46;;;;;;;6.53;3.40;;;384.50;2329.60;;;;;;5014018;28;20093;-77
2021/05/19 05:35:12;;;;;;;9.68;3.45;;;384.50;2329.60;;;;;;5008501;28;20053;-75
2021/05/19 05:37:38;;;;;;;11.13;3.97;;;384.40;2304.00;;;;;;5011473;28;20041;-74
2021/05/19 05:40:05;;;;;;;11.93;4.07;;;384.40;2329.60;;;;;;5010935;28;20029;-74
2021/05/19 05:42:32;;;;;;;13.73;4.05;;;384.50;2329.60;;;;;;5006125;28;20058;-73
2021/05/19 05:44:58;;;;;;;10.60;3.35;;;384.50;2329.60;;;;;;5003338;28;20030;-75
2021/05/19 05:47:24;;;;;;;12.40;3.67;;;384.60;2304.00;;;;;;5014541;28;20034;-74
2021/05/19 05:49:50;;;;;;;9.15;4.15;;;384.60;2304.00;;;;;;5008758;28;20385;-74
2021/05/19 05:52:16;;;;;;;11.68;3.42;;;384.60;2304.00;;;;;;5012096;28;20018;-75
2021/05/19 05:54:42;;;;;;;12.30;4.03;;;384.60;2304.00;;;;;;5013964;28;20105;-74
2021/05/19 05:57:08;;;;;;;11.73;3.90;;;384.60;2304.00;;;;;;5024431;28;20504;-74
2021/05/19 05:59:34;;;;;;;8.75;3.50;;;384.60;2304.00;;;;;;5009068;28;20032;-74
2021/05/19 06:04:38;;;;;;;10.43;4.53;;;384.20;2329.60;;;;;;4977597;28;20054;-78
2021/05/19 06:07:04;;;;;;;10.88;6.10;;;384.70;2329.60;;;;;;4977650;28;20034;-76
2021/05/19 06:09:29;;;;;;;9.43;5.40;;;384.70;2329.60;;;;;;4976391;28;20034;-76
2021/05/19 06:11:55;;;;;;;11.45;5.57;;;384.70;2329.60;;;;;;4986178;28;20027;-76
2021/05/19 06:14:21;;;;;;;7.22;3.90;;;384.70;2329.60;;;;;;4980104;28;20138;-75
2021/05/19 06:16:47;;;;;;;9.25;4.25;;;384.60;2329.60;;;;;;4993714;28;20037;-78
2021/05/19 06:19:14;;;;;;;7.43;4.25;;;384.60;2329.60;;;;;;4993315;28;20023;-79
2021/05/19 06:21:40;;;;;;;7.50;4.55;;;384.60;2329.60;;;;;;4989490;28;20015;-78
2021/05/19 06:24:06;;;;;;;7.07;4.07;;;384.60;2329.60;;;;;;4988380;28;20166;-77
2021/05/19 06:26:40;;;;;;;8.73;4.75;;;384.60;2329.60;;;;;;4969345;28;20051;-79
2021/05/19 06:29:05;;;;;;;6.90;4.60;;;384.60;2329.60;;;;;;4987102;28;20030;-77
2021/05/19 06:31:31;;;;;;;7.78;4.18;;;384.70;2329.60;;;;;;4982985;28;20038;-77
2021/05/19 06:33:57;;;;;;;6.80;3.80;;;384.70;2329.60;;;;;;4968319;28;20114;-77
2021/05/19 06:36:24;;;;;;;10.48;4.10;;;384.70;2329.60;;;;;;4978153;28;20073;-76
2021/05/19 06:38:50;;;;;;;6.50;3.88;;;384.70;2329.60;;;;;;4978125;28;20031;-72
2021/05/19 06:41:16;;;;;;;9.38;3.90;;;384.80;2329.60;;;;;;4979570;28;20031;-73
2021/05/19 06:43:42;;;;;;;7.32;4.07;;;384.80;2329.60;;;;;;4977335;28;20038;-72
2021/05/19 06:46:08;;;;;;;16.05;5.38;;;384.90;2329.60;;;;;;4985815;28;20042;-71
2021/05/19 06:48:34;;;;;;;16.20;6.15;;;409.60;2355.20;;;;;;4981300;28;20504;-72
2021/05/19 06:51:00;;;;;;;20.02;8.88;;;409.60;2355.20;;;;;;4994362;28;20034;-74
2021/05/19 06:53:26;;;;;;;14.23;6.43;;;409.70;2355.20;;;;;;4997174;28;20037;-75
2021/05/19 06:55:52;;;;;;;16.15;7.07;;;409.80;2355.20;;;;;;4994570;28;20029;-75
2021/05/19 06:58:19;;;;;;;16.65;6.55;;;409.80;2355.20;;;;;;4997202;28;20112;-78
2021/05/19 07:00:45;;;;;;;15.60;7.28;;;409.80;2355.20;;;;;;4993481;28;20149;-74
2021/05/19 07:03:14;;;;;;;18.08;7.13;;;409.90;2355.20;;;;;;4997097;28;20062;-75
2021/05/19 07:05:40;;;;;;;13.85;6.85;;;409.90;2355.20;;;;;;5001525;28;20050;-74
2021/05/19 07:08:06;;;;;;;11.45;6.55;;;410.00;2355.20;;;;;;4995976;28;20803;-75
2021/05/19 07:10:32;;;;;;;11.65;5.70;;;410.00;2355.20;;;;;;5007301;28;20046;-75
2021/05/19 07:12:58;;;;;;;14.35;7.20;;;410.00;2355.20;;;;;;5000186;28;20022;-76
2021/05/19 07:15:24;;;;;;;11.80;6.50;;;410.00;2355.20;;;;;;5000546;28;20034;-75
2021/05/19 07:17:51;;;;;;;14.02;7.32;;;410.10;2355.20;;;;;;5003378;28;20034;-76
2021/05/19 07:20:17;;;;;;;14.88;6.93;;;410.10;2355.20;;;;;;5003662;28;20033;-75
2021/05/19 07:22:43;;;;;;;13.02;7.47;;;410.20;2355.20;;;;;;5002887;28;20058;-77
2021/05/19 07:25:09;;;;;;;13.00;6.35;;;;;;;;;;5006589;28;20022;-75
2021/05/19 07:27:35;;;;;;;11.02;6.22;;;;;;;;;;5000593;28;20057;-75
2021/05/19 07:30:01;;;;;;;12.85;6.85;;;;;;;;;;5001353;28;20042;-76
2021/05/19 07:32:28;;;;;;;13.57;8.65;;;;;;;;;;4991232;28;20065;-77
2021/05/19 07:34:54;;;;;;;14.63;8.68;;;;;;;;;;4983325;28;20063;-77
2021/05/19 07:37:20;;;;;;;13.18;7.28;;;;;;;;;;4982427;28;20038;-74
2021/05/19 07:39:51;;;;;;;12.35;6.57;;;;;;;;;;4989543;28;20099;-79
2021/05/19 07:42:22;;;;;;;15.75;8.23;;;;;;;;;;5015362;28;20066;-79
2021/05/19 07:44:48;;;;;;;14.93;8.02;;;;;;;;;;5006358;28;20504;-79
2021/05/19 07:47:21;;;;;;;11.90;7.63;;;;;;;;;;5004901;28;20117;-73
2021/05/19 07:49:47;;;;;;;12.77;7.82;;;;;;;;;;5004671;28;20019;-76
2021/05/19 07:52:13;;;;;;;13.35;7.82;;;;;;;;;;5002417;28;20045;-74
2021/05/19 07:54:43;;;;;;;13.35;7.80;;;;;;;;;;5001628;28;20029;-75
2021/05/19 07:57:19;;;;;;;9.43;8.15;;;;;;;;;;4999465;28;20081;-77
2021/05/19 07:59:46;;;;;;;11.75;9.25;;;;;;;;;;4995969;28;20026;-73
2021/05/19 08:02:15;;;;;;;18.17;10.93;;;;;;;;;;4998006;28;20037;-72
2021/05/19 08:04:41;;;;;;;14.10;9.48;;;;;;;;;;4994174;28;20040;-71
2021/05/19 08:07:07;;;;;;;12.07;8.15;;;;;;;;;;4998755;28;20399;-77
2021/05/19 08:09:34;;;;;;;13.95;7.78;;;;;;;;;;4975870;28;20046;-77
2021/05/19 08:12:00;;;;;;;13.18;8.75;;;;;;;;;;4993640;28;20391;-78
2021/05/19 08:14:27;;;;;;;13.70;8.75;;;;;;;;;;4995561;28;20031;-72
2021/05/19 08:16:54;;;;;;;11.73;8.57;;;;;;;;;;4991855;28;20033;-73
2021/05/19 08:19:20;;;;;;;14.75;9.50;;;;;;;;;;4995652;28;20395;-74
2021/05/19 08:21:46;;;;;;;13.95;9.15;;;;;;;;;;4995621;28;20030;-74
2021/05/19 08:24:12;;;;;;;13.95;9.75;;;;;;;;;;4995388;28;20033;-73
2021/05/19 08:26:38;;;;;;;14.95;9.65;;;;;;;;;;4993664;28;20033;-73
2021/05/19 08:29:05;;;;;;;47.55;28.35;;;;;;;;;;5005061;28;20037;-73
2021/05/19 08:31:31;;;;;;;61.75;41.72;;;;;;;;;;4999533;28;20029;-73
2021/05/19 08:33:57;;;;;;;27.25;17.63;;;;;;;;;;4993199;28;20432;-73
2021/05/19 08:36:24;;;;;;;17.60;11.80;;;;;;;;;;4993831;28;20377;-73
2021/05/19 08:38:50;;;;;;;17.58;10.88;;;;;;;;;;4998034;28;20036;-73
2021/05/19 08:41:16;;;;;;;16.08;10.45;;;;;;;;;;4999309;28;20042;-73
2021/05/19 08:43:43;;;;;;;15.52;9.75;;;;;;;;;;4995388;28;20056;-73
2021/05/19 08:46:10;;;;;;;15.57;9.30;;;;;;;;;;4991959;28;20034;-74
2021/05/19 08:48:37;;;;;;;12.88;9.50;;;;;;;;;;4996020;28;20096;-73
2021/05/19 08:51:04;;;;;;;21.38;11.90;;;;;;;;;;4996111;28;20038;-73
2021/05/19 08:53:31;;;;;;;14.95;9.77;;;;;;;;;;4996341;28;20035;-73
2021/05/19 08:55:57;;;;;;;12.73;10.13;;;;;;;;;;4994633;28;20592;-73
2021/05/19 08:58:24;;;;;;;15.50;9.70;;;;;;;;;;4996842;28;20023;-74
2021/05/19 09:00:50;;;;;;;14.27;9.95;;;;;;;;;;4995949;28;20034;-73
2021/05/19 09:03:17;;;;;;;16.58;10.73;;;;;;;;;;4988469;28;20504;-74
2021/05/19 09:05:44;;;;;;;16.63;9.60;;;;;;;;;;4997786;28;20030;-73
2021/05/19 09:08:12;;;;;;;16.25;10.75;;;;;;;;;;4995856;28;20037;-74
2021/05/19 09:10:41;;;;;;;13.65;9.48;;;;;;;;;;4991660;28;20507;-74
2021/05/19 09:13:08;;;;;;;12.02;8.63;;;;;;;;;;4976214;28;20026;-75
2021/05/19 09:15:47;;;;;;;17.27;9.68;;;;;;;;;;4993655;28;20023;-75
2021/05/19 09:18:13;;;;;;;15.50;9.02;;;;;;;;;;4991296;28;20527;-74
2021/05/19 09:20:50;;;;;;;13.25;9.57;;;;;;;;;;4994142;28;20061;-74
2021/05/19 09:23:19;;;;;;;15.85;10.85;;;;;;;;;;4993780;28;20034;-74
2021/05/19 09:25:45;;;;;;;19.52;11.35;;;;;;;;;;5150623;23;21168;-76
2021/05/19 09:28:23;;;;;;;18.80;13.18;;;359.00;2329.60;;;;;;4973517;28;20027;-78
2021/05/19 09:30:51;;;;;;;20.40;14.23;;;;;;;;;;4992210;28;20023;-75
2021/05/19 09:33:23;;;;;;;22.33;15.90;;;;;;;;;;4978808;28;20042;-74
2021/05/19 09:36:16;;;;;;;21.85;14.00;;;358.60;2329.60;;;;;;4971125;28;20019;-76
2021/05/19 09:38:50;;;;;;;22.02;14.00;;;358.60;2329.60;;;;;;4980090;28;20034;-75
2021/05/19 09:41:35;;;;;;;23.42;14.50;;;358.70;2329.60;;;;;;4976110;28;20038;-74
2021/05/19 09:44:02;;;;;;;23.77;16.15;;;358.70;2329.60;;;;;;4976717;28;20061;-73
2021/05/19 09:49:15;;;;;;;18.88;14.18;;;358.80;2329.60;;;;;;4969529;28;20553;-74
2021/05/19 09:51:44;;;;;;;17.10;12.77;;;358.80;2329.60;;;;;;4943648;28;20477;-72
2021/05/19 09:54:30;;;;;;;17.27;12.65;;;358.80;2329.60;;;;;;4954132;28;20035;-74
2021/05/19 09:57:07;;;;;;;18.15;12.25;;;358.60;2329.60;;;;;;4941060;28;20090;-74
2021/05/19 09:59:33;;;;;;;16.70;13.05;;;358.60;2329.60;;;;;;4945666;28;20023;-74
2021/05/19 10:02:01;;;;;;;17.05;12.50;;;358.80;2329.60;;;;;;4953598;28;20027;-73
2021/05/19 10:04:38;;;;;;;17.70;12.43;;;358.90;2329.60;;;;;;4943101;28;20022;-75
2021/05/19 10:07:14;;;;;;;15.40;11.30;;;358.90;2329.60;;;;;;4947091;28;20079;-76
2021/05/19 10:09:45;;;;;;;11.77;8.75;;;359.00;2329.60;;;;;;4953374;28;20028;-74
2021/05/19 10:12:20;;;;;;;13.57;9.73;;;359.00;2329.60;;;;;;4957892;28;20019;-74
2021/05/19 10:14:56;;;;;;;12.68;9.65;;;359.00;2329.60;;;;;;4951588;28;20050;-74
2021/05/19 10:17:24;;;;;;;12.18;8.90;;;359.10;2329.60;;;;;;4950599;28;20083;-75
2021/05/19 10:20:02;;;;;;;13.63;8.75;;;359.10;2329.60;;;;;;4952115;29;20070;-76
2021/05/19 10:22:34;;;;;;;16.33;9.95;;;359.10;2329.60;;;;;;4949981;28;20015;-78
2021/05/19 10:25:18;;;;;;;16.02;11.40;;;359.20;2329.60;;;;;;4946790;28;20047;-69
2021/05/19 10:27:51;;;;;;;12.48;10.45;;;359.30;2329.60;;;;;;4949922;28;20043;-73
2021/05/19 10:30:38;;;;;;;14.40;10.48;;;359.00;2329.60;;;;;;4957854;29;20031;-77
2021/05/19 10:33:05;;;;;;;15.25;11.38;;;358.90;2329.60;;;;;;4948895;28;20046;-72
2021/05/19 10:35:36;;;;;;;16.83;11.10;;;358.90;2329.60;;;;;;4944777;28;20019;-74
2021/05/19 10:38:36;;;;;;;14.40;10.20;;;358.80;2329.60;;;;;;4944639;28;20031;-77
2021/05/19 10:41:05;;;;;;;12.88;7.97;;;358.70;2329.60;;;;;;4946026;28;20115;-73
2021/05/19 10:44:04;;;;;;;12.00;8.38;;;358.80;2329.60;;;;;;4936837;28;20023;-73
2021/05/19 10:49:20;;;;;;;14.55;9.82;;;358.90;2329.60;;;;;;4944876;28;20461;-73
2021/05/19 10:58:01;;;;;;;13.48;10.68;;;359.00;2329.60;;;;;;4932539;29;20101;-76
2021/05/19 11:00:30;;;;;;;10.57;7.93;;;358.90;2329.60;;;;;;4935248;29;20116;-75
2021/05/19 11:03:04;;;;;;;12.07;8.05;;;358.90;2329.60;;;;;;4930820;29;20032;-74
2021/05/19 11:05:34;;;;;;;9.98;7.55;;;358.90;2329.60;;;;;;4935354;29;20078;-73
2021/05/19 11:08:06;;;;;;;11.32;7.45;;;358.90;2329.60;;;;;;4933202;29;20063;-74
2021/05/19 11:11:03;;;;;;;7.57;6.05;;;359.00;2329.60;;;;;;4931361;29;20223;-75
2021/05/19 11:13:55;;;;;;;9.32;6.95;;;359.10;2329.60;;;;;;4901884;29;20098;-76
2021/05/19 11:16:26;;;;;;;9.20;5.93;;;359.20;2329.60;;;;;;4902747;29;20116;-77
2021/05/19 11:19:06;;;;;;;11.68;6.93;;;359.20;2329.60;;;;;;4899978;29;20064;-75
2021/05/19 11:21:32;;;;;;;10.77;6.10;;;359.30;2329.60;;;;;;4892220;29;20031;-72
2021/05/19 11:24:25;;;;;;;9.95;5.65;;;384.10;2329.60;;;;;;4897178;29;20043;-71
2021/05/19 11:26:51;;;;;;;7.95;5.90;;;384.00;2329.60;;;;;;4892897;29;20052;-72
2021/05/19 11:29:17;;;;;;;10.68;6.20;;;384.10;2329.60;;;;;;4898438;29;20055;-72
2021/05/19 11:31:46;;;;;;;11.25;6.72;;;384.30;2329.60;;;;;;4899500;29;20036;-72
2021/05/19 11:34:14;;;;;;;10.02;6.32;;;384.50;2329.60;;;;;;4902115;29;20124;-72
2021/05/19 11:36:45;;;;;;;8.30;5.10;;;384.50;2329.60;;;;;;4912853;29;20039;-76
2021/05/19 11:39:41;;;;;;;7.40;5.53;;;384.50;2329.60;;;;;;4916873;29;20028;-74
2021/05/19 11:42:20;;;;;;;9.60;5.47;;;384.90;2329.60;;;;;;4915226;29;20037;-77
2021/05/19 11:45:15;;;;;;;7.18;5.25;;;384.50;2329.60;;;;;;4914997;29;20068;-79
2021/05/19 11:47:42;;;;;;;11.40;6.35;;;384.80;2329.60;;;;;;4901344;29;20043;-74
2021/05/19 11:50:27;;;;;;;12.32;5.85;;;409.60;2355.20;;;;;;4923415;28;20031;-74
2021/05/19 11:53:11;;;;;;;16.23;5.97;;;384.90;2329.60;;;;;;4967569;28;20024;-76
2021/05/19 11:55:40;;;;;;;12.02;5.30;;;384.90;2329.60;;;;;;4960621;28;20031;-70
2021/05/19 11:58:15;;;;;;;10.00;5.80;;;;;;;;;;4948710;28;20485;-72
2021/05/19 12:00:43;;;;;;;13.68;5.20;;;;;;;;;;4945630;28;20173;-75
2021/05/19 12:03:10;;;;;;;14.82;6.47;;;;;;;;;;4956522;28;20035;-75
2021/05/19 12:05:40;;;;;;;8.55;5.63;;;;;;;;;;4958542;28;20059;-75
2021/05/19 12:08:08;;;;;;;11.48;5.88;;;;;;;;;;4972047;28;20293;-77
2021/05/19 12:10:34;;;;;;;15.05;5.65;;;;;;;;;;4943398;28;20099;-72
2021/05/19 12:13:03;;;;;;;10.63;5.32;;;;;;;;;;4951302;28;20019;-72
2021/05/19 12:15:30;;;;;;;9.43;5.40;;;;;;;;;;4946980;28;20055;-73
2021/05/19 12:18:00;;;;;;;10.43;6.35;;;;;;;;;;4948419;28;20023;-72
2021/05/19 12:20:27;;;;;;;12.93;8.35;;;;;;;;;;4944100;28;20030;-72
2021/05/19 12:22:56;;;;;;;16.13;7.60;;;;;;;;;;4946008;28;20023;-72
2021/05/19 12:25:22;;;;;;;12.98;7.00;;;;;;;;;;4947818;28;20550;-72
2021/05/19 12:28:03;;;;;;;15.23;8.88;;;;;;;;;;4946828;28;20070;-72
2021/05/19 12:30:30;;;;;;;15.93;9.90;;;;;;;;;;4952323;28;20047;-72
2021/05/19 12:33:07;;;;;;;20.05;12.48;;;;;;;;;;4944599;28;20036;-76
2021/05/19 12:35:33;;;;;;;35.22;21.63;;;;;;;;;;4955399;28;20055;-75
2021/05/19 12:38:02;;;;;;;67.97;40.85;;;;;;;;;;4952985;28;20034;-74
2021/05/19 12:40:32;;;;;;;27.75;16.48;;;;;;;;;;4943043;28;20103;-76
2021/05/19 12:43:00;;;;;;;21.80;13.10;;;;;;;;;;4941929;28;20035;-77
2021/05/19 12:45:29;;;;;;;24.42;16.05;;;;;;;;;;4933325;29;20055;-74
2021/05/19 12:48:06;;;;;;;15.65;9.13;;;;;;;;;;4946215;28;20038;-74
2021/05/19 12:50:49;;;;;;;11.68;8.35;;;;;;;;;;4946040;28;20050;-74
2021/05/19 12:53:40;;;;;;;13.07;7.97;;;;;;;;;;4948198;28;20096;-74
2021/05/19 12:56:28;;;;;;;13.23;7.97;;;;;;;;;;4942157;28;20103;-74
2021/05/19 12:59:05;;;;;;;11.23;6.95;;;;;;;;;;4946665;28;20035;-74
2021/05/19 13:01:41;;;;;;;18.02;9.88;;;;;;;;;;4944026;28;20425;-75
2021/05/19 13:04:07;;;;;;;16.52;9.05;;;;;;;;;;4952841;28;20109;-75
2021/05/19 13:06:35;;;;;;;12.95;8.20;;;;;;;;;;4946050;28;20032;-75
2021/05/19 13:09:03;;;;;;;10.15;7.53;;;;;;;;;;4942811;28;20079;-74
2021/05/19 13:11:36;;;;;;;13.93;8.80;;;;;;;;;;4956069;28;20038;-76
2021/05/19 13:14:04;;;;;;;13.55;8.70;;;;;;;;;;4955991;28;20123;-75